Time;durP1;ratioP1;P1;durP2;ratioP2;P2;SDS_P1;SDS_P2;PMS_P1;PMS_P2;Temp;Humidity;BMP_temperature;BMP_pressure;BME280_temperature;BME280_humidity;BME280_pressure;Samples;Min_cycle;Max_cycle;Signal;HPM_P1;HPM_P2
2023/01/28 00:01:59;;;;;;;39.83;17.15;;;;;;;3.60;59.37;99775.47;5267450;27;20734;-90
2023/01/28 00:04:25;;;;;;;37.00;16.35;;;;;;;3.49;59.37;99778.06;5285351;27;20061;-90
2023/01/28 00:06:52;;;;;;;39.83;16.62;;;;;;;3.67;59.37;99778.00;5268025;27;20067;-91
2023/01/28 00:09:17;;;;;;;39.35;16.75;;;;;;;3.52;59.37;99787.50;5268941;27;20053;-90
2023/01/28 00:11:43;;;;;;;39.05;17.25;;;;;;;3.47;59.37;99786.66;5268456;27;20146;-90
2023/01/28 00:14:10;;;;;;;39.67;16.70;;;;;;;3.63;59.38;99781.47;5268546;27;20691;-90
2023/01/28 00:16:36;;;;;;;41.05;17.45;;;;;;;3.58;59.37;99790.06;5268466;27;20060;-90
2023/01/28 00:19:01;;;;;;;43.45;16.98;;;;;;;3.71;59.38;99786.56;5268355;27;20100;-91
2023/01/28 00:21:26;;;;;;;38.42;17.65;;;;;;;3.58;59.37;99790.06;5268350;27;20074;-90
2023/01/28 00:23:53;;;;;;;46.08;17.45;;;;;;;3.69;59.38;99784.00;5268478;27;20410;-90
2023/01/28 00:26:19;;;;;;;48.05;18.23;;;;;;;3.63;59.38;99789.19;5268495;27;20057;-90
2023/01/28 00:28:44;;;;;;;46.15;19.48;;;;;;;3.95;59.39;99789.03;5268003;27;20102;-91
2023/01/28 00:31:19;;;;;;;45.33;19.42;;;;;;;3.79;59.39;99794.28;5267932;27;20458;-91
2023/01/28 00:33:46;;;;;;;65.00;22.27;;;;;;;3.82;59.39;99789.97;5268521;27;20065;-90
2023/01/28 00:36:12;;;;;;;54.45;23.58;;;;;;;3.79;59.39;99795.16;5268187;27;20418;-90
2023/01/28 00:38:37;;;;;;;49.20;22.60;;;;;;;3.84;59.39;99795.97;5267890;27;20043;-90
2023/01/28 00:41:10;;;;;;;53.87;23.58;;;;;;;3.86;59.39;99796.81;5268168;27;20677;-90
2023/01/28 00:43:36;;;;;;;46.80;19.58;;;;;;;3.86;59.40;99795.97;5268266;27;20076;-90
2023/01/28 00:46:02;;;;;;;43.92;18.70;;;;;;;3.94;59.39;99791.62;5268427;27;20053;-90
2023/01/28 00:48:28;;;;;;;45.38;19.10;;;;;;;3.85;59.39;99794.25;5267941;27;20138;-90
2023/01/28 00:50:53;;;;;;;47.83;19.27;;;;;;;3.68;59.37;99802.03;5268584;27;20222;-90
2023/01/28 00:53:18;;;;;;;50.10;19.67;;;;;;;3.62;59.38;99802.06;5268322;27;20120;-90
2023/01/28 00:55:44;;;;;;;44.83;19.50;;;;;;;3.63;59.38;99816.66;5267843;27;20105;-90
2023/01/28 00:58:09;;;;;;;49.97;21.08;;;;;;;3.49;59.37;99802.94;5268083;27;20104;-90
2023/01/28 01:00:35;;;;;;;48.33;20.08;;;;;;;3.60;59.38;99806.34;5267999;27;20120;-90
2023/01/28 01:03:00;;;;;;;55.20;20.45;;;;;;;3.60;59.37;99814.94;5268047;27;20073;-91
2023/01/28 01:05:26;;;;;;;44.97;18.12;;;;;;;3.34;59.36;99812.44;5267967;27;20427;-90
2023/01/28 01:07:51;;;;;;;46.83;21.20;;;;;;;3.51;59.37;99812.38;5267987;27;20095;-90
2023/01/28 01:10:17;;;;;;;47.72;19.35;;;;;;;3.32;59.36;99800.44;5267942;27;20414;-90
2023/01/28 01:12:45;;;;;;;56.80;20.33;;;;;;;3.54;59.38;99811.50;5267692;27;20111;-90
2023/01/28 01:15:10;;;;;;;49.97;19.70;;;;;;;3.52;59.37;99808.94;5268025;27;20048;-90
2023/01/28 01:17:40;;;;;;;49.30;19.77;;;;;;;3.56;59.37;99812.38;5268151;27;20067;-88
2023/01/28 01:20:09;;;;;;;52.53;18.12;;;;;;;3.46;59.36;99813.25;5268172;27;20080;-90
2023/01/28 01:22:35;;;;;;;45.17;18.70;;;;;;;3.53;59.38;99814.94;5268238;27;20074;-89
2023/01/28 01:25:01;;;;;;;46.47;18.65;;;;;;;3.58;59.38;99806.38;5267820;27;20017;-90
2023/01/28 01:27:26;;;;;;;46.58;17.62;;;;;;;3.59;59.37;99804.66;5268033;27;20095;-90
2023/01/28 01:29:52;;;;;;;45.85;18.33;;;;;;;3.53;59.38;99804.63;5268033;27;20061;-90
2023/01/28 01:32:17;;;;;;;41.63;17.48;;;;;;;3.55;59.37;99803.81;5267989;27;20095;-89
2023/01/28 01:34:43;;;;;;;46.37;18.73;;;;;;;3.49;59.37;99811.53;5267901;27;20092;-90
2023/01/28 01:37:09;;;;;;;41.20;19.33;;;;;;;3.58;59.38;99815.81;5268026;27;20049;-91
2023/01/28 01:39:35;;;;;;;42.33;17.80;;;;;;;3.62;59.38;99812.34;5268197;27;20081;-89
2023/01/28 01:42:00;;;;;;;42.03;17.83;;;;;;;3.44;59.37;99810.69;5268080;27;20061;-90
2023/01/28 01:44:46;;;;;;;40.75;18.42;;;;;;;3.68;59.38;99813.19;5267967;27;20056;-90
2023/01/28 01:47:12;;;;;;;44.95;18.27;;;;;;;3.63;59.38;99817.50;5285836;27;20035;-91
2023/01/28 01:49:37;;;;;;;42.72;18.25;;;;;;;3.69;59.38;99811.47;5267929;27;20124;-90
2023/01/28 01:52:07;;;;;;;40.05;17.08;;;;;;;3.82;59.38;99815.72;5268289;27;20361;-90
2023/01/28 01:54:32;;;;;;;43.05;17.83;;;;;;;3.68;59.38;99813.19;5268235;27;20055;-90
2023/01/28 01:56:58;;;;;;;42.40;18.15;;;;;;;3.74;59.38;99820.03;5268152;27;20096;-90
2023/01/28 01:59:26;;;;;;;44.42;18.17;;;;;;;3.72;59.39;99821.75;5268323;27;20076;-90
2023/01/28 02:01:51;;;;;;;44.08;19.37;;;;;;;3.79;59.39;99820.03;5268160;27;20206;-90
2023/01/28 02:04:19;;;;;;;41.55;18.87;;;;;;;3.92;59.40;99819.09;5267001;27;20428;-90
2023/01/28 02:06:45;;;;;;;38.63;17.83;;;;;;;3.77;59.39;99827.72;5266754;27;20057;-90
2023/01/28 02:09:24;;;;;;;48.03;19.98;;;;;;;3.83;59.40;99819.16;5267825;27;20079;-91
2023/01/28 02:12:09;;;;;;;49.05;18.50;;;;;;;4.03;59.40;99821.66;5285939;27;20061;-91
2023/01/28 02:14:37;;;;;;;45.67;20.05;;;;;;;4.08;59.40;99814.75;5288648;27;20410;-91
2023/01/28 02:17:02;;;;;;;47.62;20.73;;;;;;;4.06;59.41;99819.06;5268001;27;20674;-90
2023/01/28 02:19:58;;;;;;;50.95;20.27;;;;;;;4.12;59.40;99825.03;5267682;27;20116;-90
2023/01/28 02:22:51;;;;;;;47.88;19.75;;;;;;;4.30;59.42;99821.50;5263160;27;20061;-90
2023/01/28 02:25:28;;;;;;;46.42;19.27;;;;;;;4.06;59.41;99814.78;5303773;27;20056;-89
2023/01/28 02:28:13;;;;;;;46.72;20.40;;;;;;;4.10;59.40;99810.44;5285886;27;20401;-91
2023/01/28 02:30:41;;;;;;;55.08;21.20;;;;;;;4.05;59.40;99819.94;5285839;27;20057;-91
2023/01/28 02:33:17;;;;;;;47.28;21.20;;;;;;;4.20;59.41;99818.13;5268189;27;20039;-92
2023/01/28 02:35:45;;;;;;;50.38;20.12;;;;;;;4.30;59.42;99812.06;5268546;27;20171;-91
2023/01/28 02:38:14;;;;;;;50.00;18.35;;;;;;;4.26;59.41;99805.22;5304102;27;20049;-91
2023/01/28 02:43:31;;;;;;;45.15;19.80;;;;;;;4.18;59.41;99809.53;5291445;27;20071;-90
2023/01/28 02:48:40;;;;;;;46.10;19.83;;;;;;;4.13;59.41;99810.44;5284785;27;20103;-91
2023/01/28 02:51:19;;;;;;;43.15;19.17;;;;;;;4.10;59.40;99806.16;5264310;27;20422;-91
2023/01/28 02:53:56;;;;;;;50.75;19.65;;;;;;;4.07;59.41;99808.75;5265530;27;20073;-91
2023/01/28 02:56:33;;;;;;;48.30;19.62;;;;;;;4.12;59.42;99816.44;5264687;27;20057;-90
2023/01/28 02:59:30;;;;;;;51.72;19.37;;;;;;;3.98;59.39;99816.50;5283134;27;20044;-91
2023/01/28 03:02:07;;;;;;;49.83;20.17;;;;;;;4.01;59.40;99807.03;5300226;27;20061;-91
2023/01/28 03:04:40;;;;;;;44.95;18.67;;;;;;;4.04;59.40;99810.50;5300908;27;20081;-91
2023/01/28 03:07:06;;;;;;;50.42;20.10;;;;;;;4.14;59.41;99810.41;5264912;27;20073;-90
2023/01/28 03:09:31;;;;;;;46.08;20.58;;;;;;;4.31;59.42;99810.34;5264417;27;20044;-90
2023/01/28 03:37:37;;;;;;;47.62;19.75;;;;;;;4.26;59.41;99819.81;5285642;27;20119;-91
2023/01/28 03:40:04;;;;;;;48.35;20.60;;;;;;;4.05;59.40;99822.50;5264397;27;20449;-91
2023/01/28 03:42:29;;;;;;;41.85;19.17;;;;;;;3.84;59.39;99823.44;5265329;27;20417;-90
2023/01/28 03:44:56;;;;;;;49.72;20.55;;;;;;;4.24;59.41;99813.78;5265011;27;20110;-90
2023/01/28 03:47:23;;;;;;;48.17;19.98;;;;;;;4.08;59.40;99819.91;5265124;27;20061;-91
2023/01/28 03:49:49;;;;;;;49.42;21.23;;;;;;;3.98;59.40;99825.09;5264950;27;20059;-91
2023/01/28 03:52:17;;;;;;;44.63;19.35;;;;;;;4.11;59.40;99825.03;5264461;27;20067;-90
2023/01/28 03:54:55;;;;;;;44.63;20.42;;;;;;;3.91;59.40;99823.41;5265506;27;20075;-91
2023/01/28 03:57:23;;;;;;;45.10;18.58;;;;;;;4.23;59.41;99824.97;5283184;27;20124;-91
2023/01/28 03:59:49;;;;;;;49.20;20.65;;;;;;;3.91;59.40;99833.72;5265049;27;20108;-91
2023/01/28 04:02:15;;;;;;;45.00;18.73;;;;;;;4.13;59.41;99833.63;5264159;27;20076;-91
2023/01/28 04:04:41;;;;;;;50.95;20.83;;;;;;;4.14;59.41;99830.19;5264315;27;20053;-90
2023/01/28 04:07:07;;;;;;;44.42;19.20;;;;;;;4.25;59.41;99831.81;5300445;27;20334;-91
2023/01/28 04:09:36;;;;;;;44.00;18.55;;;;;;;3.98;59.39;99831.94;5264257;27;20096;-91
2023/01/28 04:12:02;;;;;;;39.28;17.95;;;;;;;3.79;59.39;99828.63;5264130;27;20114;-91
2023/01/28 04:14:28;;;;;;;41.22;18.70;;;;;;;3.99;59.40;99829.38;5282176;27;20667;-91
2023/01/28 04:16:56;;;;;;;42.28;17.77;;;;;;;3.86;59.39;99825.16;5264038;27;20101;-91
2023/01/28 04:19:21;;;;;;;48.35;21.23;;;;;;;3.94;59.39;99832.84;5264985;27;20052;-91
2023/01/28 04:21:48;;;;;;;45.88;20.35;;;;;;;3.99;59.40;99826.78;5264363;27;20044;-90
2023/01/28 04:24:13;;;;;;;45.00;20.00;;;;;;;4.06;59.41;99829.38;5264188;27;20864;-91
2023/01/28 04:26:39;;;;;;;44.55;19.35;;;;;;;4.11;59.40;99831.06;5263446;27;20060;-90
2023/01/28 04:29:04;;;;;;;45.67;19.02;;;;;;;4.14;59.41;99835.34;5264494;27;20116;-90
2023/01/28 04:31:30;;;;;;;42.15;18.23;;;;;;;4.16;59.41;99829.31;5264930;27;20068;-89
2023/01/28 04:33:55;;;;;;;47.17;19.42;;;;;;;4.01;59.40;99832.78;5283176;27;20057;-89
2023/01/28 04:36:21;;;;;;;43.87;18.52;;;;;;;4.14;59.41;99831.03;5264994;27;20057;-91
2023/01/28 04:38:46;;;;;;;43.80;18.27;;;;;;;4.00;59.40;99843.09;5264955;27;20053;-90
2023/01/28 04:41:12;;;;;;;48.65;19.90;;;;;;;4.12;59.42;99839.63;5264838;27;20329;-90
2023/01/28 04:43:37;;;;;;;48.30;19.33;;;;;;;4.07;59.40;99839.66;5282640;27;20123;-89
2023/01/28 04:46:03;;;;;;;40.80;17.75;;;;;;;4.21;59.41;99839.56;5265016;27;20094;-90
2023/01/28 04:48:30;;;;;;;43.13;18.45;;;;;;;4.07;59.40;99843.97;5282368;27;20109;-90
2023/01/28 04:50:55;;;;;;;37.45;18.25;;;;;;;4.10;59.40;99839.66;5265584;27;20064;-90
2023/01/28 04:53:21;;;;;;;43.50;18.02;;;;;;;4.09;59.40;99844.81;5264667;27;20065;-90
2023/01/28 04:55:46;;;;;;;44.00;17.25;;;;;;;4.24;59.41;99844.72;5264759;27;20405;-89
2023/01/28 04:58:12;;;;;;;44.65;19.33;;;;;;;4.25;59.41;99842.13;5264790;27;20053;-89
2023/01/28 05:00:37;;;;;;;41.80;18.37;;;;;;;4.12;59.40;99844.78;5264867;27;20045;-89
2023/01/28 05:03:02;;;;;;;46.63;19.20;;;;;;;4.38;59.42;99842.94;5264966;27;20707;-89
2023/01/28 05:05:28;;;;;;;45.17;18.80;;;;;;;4.28;59.42;99851.59;5264716;27;20401;-89
2023/01/28 05:07:54;;;;;;;44.42;18.48;;;;;;;4.09;59.40;99849.97;5264909;27;20481;-90
2023/01/28 05:10:20;;;;;;;43.30;18.70;;;;;;;4.11;59.40;99854.22;5265075;27;20067;-91
2023/01/28 05:12:46;;;;;;;45.78;19.05;;;;;;;4.11;59.41;99849.09;5264867;27;20399;-91
2023/01/28 05:15:11;;;;;;;47.90;19.98;;;;;;;4.05;59.40;99858.56;5265191;27;20030;-91
2023/01/28 05:17:36;;;;;;;47.75;20.52;;;;;;;4.19;59.41;99859.34;5265091;27;20093;-90
2023/01/28 05:20:03;;;;;;;45.85;19.00;;;;;;;4.11;59.40;99856.81;5264865;27;20086;-90
2023/01/28 05:22:28;;;;;;;46.63;19.83;;;;;;;4.08;59.40;99866.28;5283230;27;20061;-91
2023/01/28 05:24:54;;;;;;;44.47;18.73;;;;;;;4.13;59.41;99873.13;5264307;27;20060;-89
2023/01/28 05:27:19;;;;;;;44.70;18.55;;;;;;;4.09;59.41;99874.00;5264449;27;20057;-90
2023/01/28 05:29:45;;;;;;;48.03;18.83;;;;;;;4.06;59.41;99868.00;5282430;27;20057;-89
2023/01/28 05:32:14;;;;;;;43.25;18.45;;;;;;;3.93;59.39;99865.44;5264596;27;20065;-89
2023/01/28 05:34:41;;;;;;;48.47;19.15;;;;;;;3.84;59.40;99872.37;5265556;27;20119;-89
2023/01/28 05:37:07;;;;;;;43.83;19.00;;;;;;;3.67;59.38;99869.81;5264725;27;20053;-91
2023/01/28 05:39:32;;;;;;;46.80;19.10;;;;;;;3.71;59.38;99876.69;5264709;27;20319;-91
2023/01/28 05:41:58;;;;;;;46.83;19.83;;;;;;;3.50;59.37;99880.13;5264486;27;20065;-91
2023/01/28 05:44:23;;;;;;;44.58;19.85;;;;;;;3.38;59.36;99875.88;5264659;27;20195;-90
2023/01/28 05:46:48;;;;;;;45.97;18.48;;;;;;;3.33;59.37;99879.31;5264793;27;20056;-91
2023/01/28 05:49:15;;;;;;;46.55;19.12;;;;;;;3.26;59.36;99880.16;5268418;27;20045;-91
2023/01/28 05:51:41;;;;;;;42.00;17.73;;;;;;;3.45;59.36;99883.59;5268532;27;20065;-89
2023/01/28 05:54:06;;;;;;;44.58;18.12;;;;;;;3.52;59.37;99882.72;5268456;27;20064;-90
2023/01/28 05:56:35;;;;;;;46.30;19.00;;;;;;;3.36;59.36;99885.31;5268163;27;20056;-89
2023/01/28 05:59:01;;;;;;;42.72;18.83;;;;;;;3.32;59.37;99887.91;5268375;27;20064;-90
2023/01/28 06:01:27;;;;;;;41.83;19.40;;;;;;;3.25;59.36;99888.75;5268258;27;20186;-91
2023/01/28 06:03:52;;;;;;;44.20;19.27;;;;;;;3.31;59.36;99887.03;5267779;27;20064;-91
2023/01/28 06:06:18;;;;;;;45.90;19.17;;;;;;;3.31;59.37;99887.03;5268157;27;20390;-92
2023/01/28 06:08:46;;;;;;;54.70;19.73;;;;;;;3.28;59.36;99883.59;5268167;27;20174;-90
2023/01/28 06:11:12;;;;;;;50.83;21.52;;;;;;;3.40;59.37;99888.75;5268158;27;20105;-92
2023/01/28 06:13:37;;;;;;;46.72;19.10;;;;;;;3.27;59.36;99895.59;5268226;27;20061;-91
2023/01/28 06:16:03;;;;;;;41.28;18.00;;;;;;;3.41;59.37;99894.75;5268312;27;20303;-89
2023/01/28 06:18:28;;;;;;;51.30;18.65;;;;;;;3.32;59.37;99896.47;5268315;27;20481;-90
2023/01/28 06:20:54;;;;;;;48.60;18.35;;;;;;;3.17;59.34;99903.31;5268308;27;20114;-90
2023/01/28 06:23:19;;;;;;;51.53;20.45;;;;;;;3.32;59.37;99909.34;5268452;27;20056;-90
2023/01/28 06:25:45;;;;;;;41.45;19.00;;;;;;;3.30;59.35;99903.31;5268220;27;20145;-90
2023/01/28 06:28:10;;;;;;;42.60;19.10;;;;;;;3.44;59.36;99912.75;5268313;27;20044;-89
2023/01/28 06:30:39;;;;;;;48.25;19.30;;;;;;;3.45;59.36;99909.31;5268080;27;20057;-90
2023/01/28 06:33:05;;;;;;;40.10;18.77;;;;;;;3.43;59.36;99917.03;5268914;27;20056;-89
2023/01/28 06:35:30;;;;;;;42.88;17.35;;;;;;;3.42;59.37;99917.03;5268566;27;20052;-90
2023/01/28 06:37:56;;;;;;;44.05;18.37;;;;;;;3.55;59.37;99926.44;5267989;27;20438;-91
2023/01/28 06:40:24;;;;;;;45.30;18.90;;;;;;;3.49;59.37;99927.31;5268375;27;20402;-90
2023/01/28 06:42:50;;;;;;;43.00;18.17;;;;;;;3.38;59.36;99927.34;5268852;27;20108;-89
2023/01/28 06:45:15;;;;;;;46.05;18.40;;;;;;;3.32;59.37;99932.50;5267959;27;20073;-88
2023/01/28 06:47:41;;;;;;;52.35;21.12;;;;;;;3.38;59.36;99935.06;5264321;27;20057;-88
2023/01/28 06:50:07;;;;;;;47.03;19.12;;;;;;;3.24;59.35;99943.62;5264010;27;20096;-89
2023/01/28 06:52:34;;;;;;;44.95;18.60;;;;;;;3.37;59.36;99942.78;5264368;27;20065;-88
2023/01/28 06:55:00;;;;;;;44.22;17.70;;;;;;;3.19;59.35;99950.47;5264320;27;20048;-88
2023/01/28 06:57:25;;;;;;;43.35;19.48;;;;;;;3.38;59.36;99954.78;5264222;27;20107;-87
2023/01/28 06:59:51;;;;;;;41.40;19.05;;;;;;;3.29;59.36;99963.34;5264453;27;20112;-88
2023/01/28 07:02:16;;;;;;;44.88;18.42;;;;;;;3.34;59.37;99953.94;5263706;27;20104;-87
2023/01/28 07:04:42;;;;;;;40.60;17.87;;;;;;;3.39;59.37;99953.94;5263998;27;20108;-88
2023/01/28 07:07:07;;;;;;;44.15;18.77;;;;;;;3.38;59.36;99960.78;5263882;27;20370;-89
2023/01/28 07:09:35;;;;;;;42.97;18.17;;;;;;;3.38;59.36;99959.94;5263885;27;20111;-89
2023/01/28 07:12:04;;;;;;;47.22;19.92;;;;;;;3.43;59.36;99965.94;5282798;27;20053;-89
2023/01/28 07:14:30;;;;;;;46.97;18.95;;;;;;;3.39;59.37;99967.66;5300411;27;20053;-89
2023/01/28 07:16:58;;;;;;;45.80;21.00;;;;;;;3.57;59.37;99963.37;5265243;27;20666;-89
2023/01/28 07:19:23;;;;;;;49.58;19.50;;;;;;;3.50;59.37;99964.22;5265505;27;20057;-89
2023/01/28 07:21:49;;;;;;;44.58;18.42;;;;;;;3.47;59.37;99975.38;5264564;27;20063;-90
2023/01/28 07:24:14;;;;;;;44.40;18.33;;;;;;;3.39;59.37;99979.66;5264663;27;20105;-88
2023/01/28 07:26:40;;;;;;;45.33;18.15;;;;;;;3.25;59.36;99978.78;5283405;27;20139;-88
2023/01/28 07:29:05;;;;;;;47.58;18.77;;;;;;;3.31;59.37;99979.66;5265117;27;20076;-89
2023/01/28 07:31:31;;;;;;;44.75;19.37;;;;;;;3.33;59.36;99985.66;5262325;27;20057;-87
2023/01/28 07:33:56;;;;;;;46.67;18.73;;;;;;;3.39;59.37;99982.22;5264525;27;20071;-90
2023/01/28 07:36:22;;;;;;;42.45;17.15;;;;;;;3.39;59.37;99983.09;5264449;27;20049;-87
2023/01/28 07:38:47;;;;;;;38.60;17.73;;;;;;;3.42;59.37;99984.81;5264539;27;20057;-88
2023/01/28 07:41:14;;;;;;;38.40;17.35;;;;;;;3.49;59.37;99985.66;5264614;27;20087;-87
2023/01/28 07:43:39;;;;;;;42.15;17.60;;;;;;;3.48;59.37;99983.94;5264554;27;20418;-87
2023/01/28 07:46:05;;;;;;;40.88;17.35;;;;;;;3.53;59.38;99992.50;5264745;27;20115;-88
2023/01/28 07:48:31;;;;;;;45.05;17.08;;;;;;;3.45;59.37;99986.50;5264585;27;20062;-94
2023/01/28 07:51:00;;;;;;;44.42;16.67;;;;;;;3.25;59.36;99989.91;5264904;27;20085;-93
2023/01/28 07:53:25;;;;;;;37.40;15.43;;;;;;;3.22;59.35;99989.06;5265134;27;20057;-93
2023/01/28 07:55:51;;;;;;;41.33;16.58;;;;;;;3.35;59.37;99990.81;5265181;27;20057;-94
2023/01/28 07:58:16;;;;;;;58.87;21.42;;;;;;;3.17;59.36;99990.78;5265324;27;20071;-93
2023/01/28 08:00:42;;;;;;;53.42;21.40;;;;;;;3.35;59.36;99988.22;5264824;27;20174;-93
2023/01/28 08:03:14;;;;;;;42.78;17.40;;;;;;;3.43;59.37;99990.81;5264907;27;20383;-93
2023/01/28 08:05:46;;;;;;;40.97;17.75;;;;;;;3.48;59.37;99991.66;5265888;27;20057;-93
2023/01/28 08:08:12;;;;;;;42.45;17.92;;;;;;;3.57;59.38;99992.53;5284623;27;20081;-94
2023/01/28 08:10:38;;;;;;;43.75;18.12;;;;;;;3.81;59.38;99986.53;5266066;27;20052;-95
2023/01/28 08:13:03;;;;;;;45.50;17.92;;;;;;;3.75;59.38;99996.81;5266052;27;20053;-94
2023/01/28 08:15:32;;;;;;;42.92;18.00;;;;;;;3.81;59.39;100001.12;5266398;27;20049;-94
2023/01/28 08:17:58;;;;;;;45.75;19.05;;;;;;;3.90;59.39;99995.94;5283771;27;20075;-94
2023/01/28 08:20:24;;;;;;;41.40;17.83;;;;;;;3.92;59.40;99995.09;5265259;27;20069;-94
2023/01/28 08:22:50;;;;;;;43.53;16.65;;;;;;;4.04;59.40;99993.37;5265947;27;20166;-94
2023/01/28 08:25:18;;;;;;;43.15;17.48;;;;;;;3.95;59.39;99989.06;5283721;27;20089;-95
2023/01/28 08:27:44;;;;;;;40.97;17.65;;;;;;;3.78;59.39;99999.38;5265445;27;21268;-94
2023/01/28 08:30:10;;;;;;;37.63;16.30;;;;;;;3.87;59.39;99993.37;5265897;27;20128;-93
2023/01/28 08:32:35;;;;;;;42.38;17.62;;;;;;;3.61;59.38;99996.81;5283493;27;20110;-93
2023/01/28 08:35:02;;;;;;;47.08;18.00;;;;;;;3.61;59.38;99996.81;5264841;27;20094;-93
2023/01/28 08:37:27;;;;;;;39.03;16.08;;;;;;;3.77;59.39;100002.81;5265197;27;20077;-90
2023/01/28 08:39:52;;;;;;;41.70;16.75;;;;;;;3.95;59.40;100001.94;5265322;27;20643;-93
2023/01/28 08:42:18;;;;;;;43.42;17.60;;;;;;;3.85;59.39;100013.13;5265582;27;20052;-93
2023/01/28 08:44:44;;;;;;;41.22;16.95;;;;;;;3.92;59.40;100013.09;5265606;27;20313;-93
2023/01/28 08:47:09;;;;;;;45.22;17.98;;;;;;;3.81;59.39;100020.00;5269178;27;20071;-93
2023/01/28 08:49:35;;;;;;;42.10;18.60;;;;;;;3.74;59.39;100014.81;5268765;27;20313;-93
2023/01/28 08:52:00;;;;;;;38.33;16.42;;;;;;;3.97;59.41;100021.69;5269083;27;20094;-93
2023/01/28 08:54:26;;;;;;;37.83;16.45;;;;;;;3.86;59.39;100027.72;5269208;27;20068;-93
2023/01/28 08:56:51;;;;;;;48.67;18.58;;;;;;;3.79;59.39;100014.00;5269176;27;20053;-92
2023/01/28 08:59:20;;;;;;;41.05;18.45;;;;;;;3.78;59.39;100022.53;5305429;27;20111;-92
2023/01/28 09:01:45;;;;;;;44.20;17.85;;;;;;;3.89;59.39;100023.41;5269437;27;20116;-94
2023/01/28 09:04:11;;;;;;;39.90;17.12;;;;;;;4.07;59.41;100021.69;5268836;27;20094;-93
2023/01/28 09:06:36;;;;;;;42.80;18.15;;;;;;;4.09;59.41;100023.41;5268448;27;20064;-92
2023/01/28 09:09:02;;;;;;;39.83;18.58;;;;;;;3.86;59.39;100033.72;5268198;27;22288;-92
2023/01/28 09:11:27;;;;;;;40.65;17.77;;;;;;;3.95;59.39;100035.41;5268584;27;20064;-92
2023/01/28 09:13:53;;;;;;;39.22;17.60;;;;;;;4.05;59.41;100042.28;5268566;27;20057;-93
2023/01/28 09:16:18;;;;;;;45.08;17.77;;;;;;;4.07;59.41;100039.72;5268466;27;20096;-93
2023/01/28 09:18:44;;;;;;;46.00;18.40;;;;;;;4.27;59.42;100033.69;5271477;27;20088;-93
2023/01/28 09:21:09;;;;;;;41.25;17.80;;;;;;;4.27;59.42;100037.97;5269428;27;20052;-92
2023/01/28 09:23:36;;;;;;;36.53;17.25;;;;;;;4.35;59.42;100040.53;5269218;27;20064;-92
2023/01/28 09:26:02;;;;;;;41.88;18.62;;;;;;;4.34;59.42;100033.66;5268770;27;20061;-92
2023/01/28 09:28:28;;;;;;;37.53;16.80;;;;;;;4.41;59.42;100035.34;5286658;27;20035;-93
2023/01/28 09:31:00;;;;;;;41.15;18.65;;;;;;;4.51;59.43;100037.06;5269078;27;20457;-92
2023/01/28 09:33:26;;;;;;;40.17;17.17;;;;;;;4.50;59.42;100045.66;5268907;27;20053;-93
2023/01/28 09:35:51;;;;;;;38.13;17.50;;;;;;;4.31;59.42;100042.25;5269044;27;20121;-91
2023/01/28 09:38:17;;;;;;;42.92;18.02;;;;;;;4.37;59.42;100056.84;5269153;27;20056;-93
2023/01/28 09:40:42;;;;;;;42.53;17.02;;;;;;;4.36;59.43;100052.56;5269081;27;20336;-93
2023/01/28 09:43:43;;;;;;;43.97;17.70;;;;;;;4.27;59.42;100048.28;5268898;27;20044;-92
2023/01/28 09:46:10;;;;;;;43.42;17.83;;;;;;;4.24;59.41;100043.97;5299437;27;20021;-92
2023/01/28 09:48:46;;;;;;;42.45;16.85;;;;;;;4.10;59.41;100047.44;5268768;27;20091;-93
2023/01/28 09:51:32;;;;;;;42.03;17.77;;;;;;;4.25;59.41;100044.81;5269650;27;20072;-92
2023/01/28 09:54:02;;;;;;;44.22;18.12;;;;;;;4.18;59.41;100043.97;5286947;27;20064;-94
2023/01/28 09:56:33;;;;;;;41.28;17.58;;;;;;;4.22;59.42;100037.97;5269357;27;20093;-94
2023/01/28 09:59:05;;;;;;;43.63;19.77;;;;;;;4.29;59.42;100042.25;5269048;27;20075;-94
2023/01/28 10:01:44;;;;;;;39.50;16.87;;;;;;;4.31;59.42;100044.84;5268819;27;20072;-93
2023/01/28 10:04:21;;;;;;;42.20;17.75;;;;;;;4.43;59.43;100036.19;5268915;27;20053;-94
2023/01/28 10:06:53;;;;;;;41.60;17.42;;;;;;;4.32;59.41;100038.81;5304986;27;20065;-93
2023/01/28 10:09:52;;;;;;;41.45;18.52;;;;;;;4.34;59.42;100038.81;5304615;27;20025;-92
2023/01/28 10:12:30;;;;;;;38.63;16.80;;;;;;;4.34;59.42;100029.34;5269922;27;20071;-91
2023/01/28 10:15:23;;;;;;;40.35;18.12;;;;;;;4.57;59.43;100035.31;5286329;27;20052;-92
2023/01/28 10:17:50;;;;;;;34.45;16.55;;;;;;;4.57;59.44;100032.72;5289803;27;20050;-92
2023/01/28 10:20:37;;;;;;;36.83;16.08;;;;;;;4.67;59.44;100024.94;5268135;27;20060;-92
2023/01/28 10:23:17;;;;;;;37.58;18.00;;;;;;;4.46;59.42;100028.47;5268441;27;20052;-91
2023/01/28 10:25:47;;;;;;;37.78;17.15;;;;;;;4.45;59.43;100037.91;5287283;27;20027;-91
2023/01/28 10:28:26;;;;;;;37.40;17.70;;;;;;;4.56;59.43;100028.44;5269188;27;20079;-91
2023/01/28 10:30:52;;;;;;;36.70;16.55;;;;;;;4.72;59.45;100028.38;5268168;27;20092;-91
2023/01/28 10:33:27;;;;;;;36.65;17.42;;;;;;;4.72;59.45;100029.22;5275271;27;230854;-92
2023/01/28 10:35:56;;;;;;;39.03;16.67;;;;;;;4.82;59.45;100022.31;5289422;27;20057;-90
2023/01/28 10:38:25;;;;;;;35.53;15.95;;;;;;;4.78;59.44;100026.66;5287304;27;20079;-91
2023/01/28 10:40:51;;;;;;;44.30;17.58;;;;;;;4.87;59.46;100028.31;5267448;27;20135;-93
2023/01/28 10:43:19;;;;;;;32.90;15.30;;;;;;;4.77;59.44;100027.50;5284471;27;20079;-90
2023/01/28 10:46:05;;;;;;;32.78;16.52;;;;;;;4.97;59.45;100034.28;5267697;27;20049;-93
2023/01/28 10:48:36;;;;;;;33.63;16.00;;;;;;;5.02;59.46;100037.72;5285646;27;20072;-92
2023/01/28 10:51:05;;;;;;;36.50;16.08;;;;;;;5.11;59.46;100030.78;5267466;27;20139;-92
2023/01/28 10:53:38;;;;;;;39.53;17.08;;;;;;;5.33;59.48;100030.66;5266794;27;20127;-91
2023/01/28 10:56:06;;;;;;;37.05;16.83;;;;;;;5.69;59.50;100032.12;5267558;27;20460;-92
2023/01/28 10:58:33;;;;;;;34.83;16.92;;;;;;;5.78;59.50;100029.47;5267432;27;20061;-93
2023/01/28 11:01:00;;;;;;;44.58;17.58;;;;;;;5.83;59.51;100031.13;5267540;27;20087;-93
2023/01/28 11:03:29;;;;;;;37.85;16.87;;;;;;;5.90;59.50;100028.53;5267864;27;20071;-92
2023/01/28 11:05:56;;;;;;;43.47;19.20;;;;;;;5.74;59.50;100023.47;5268586;27;20107;-93
2023/01/28 11:08:23;;;;;;;37.58;17.05;;;;;;;5.76;59.49;100033.78;5268025;27;20099;-94
2023/01/28 11:10:48;;;;;;;40.67;18.40;;;;;;;5.65;59.49;100030.41;5267662;27;20875;-92
2023/01/28 11:13:21;;;;;;;35.25;16.70;;;;;;;5.67;59.49;100026.09;5268101;27;20103;-93
2023/01/28 11:16:05;;;;;;;36.10;16.80;;;;;;;5.52;59.48;100027.09;5267821;27;20050;-94
2023/01/28 11:18:33;;;;;;;36.67;16.10;;;;;;;5.54;59.49;100025.34;5285846;27;20072;-93
2023/01/28 11:21:00;;;;;;;39.53;16.98;;;;;;;5.28;59.47;100025.53;5268239;27;20207;-93
2023/01/28 11:23:34;;;;;;;37.55;16.92;;;;;;;5.15;59.46;100016.97;5285822;27;20063;-93
2023/01/28 11:26:04;;;;;;;35.60;16.05;;;;;;;5.19;59.47;100020.41;5267840;27;20044;-93
2023/01/28 11:28:29;;;;;;;37.60;16.55;;;;;;;5.18;59.47;100026.44;5285728;27;20075;-93
2023/01/28 11:30:55;;;;;;;34.85;17.10;;;;;;;5.20;59.47;100017.84;5267432;27;20100;-92
2023/01/28 11:33:23;;;;;;;29.87;15.82;;;;;;;5.45;59.48;100020.25;5267791;27;20060;-93
2023/01/28 11:35:53;;;;;;;34.00;15.80;;;;;;;5.51;59.48;100018.47;5268267;27;20045;-93
2023/01/28 11:38:21;;;;;;;35.35;16.73;;;;;;;5.47;59.48;100015.94;5268539;27;20061;-93
2023/01/28 11:40:51;;;;;;;33.55;15.07;;;;;;;5.39;59.48;100009.94;5268349;27;20421;-93
2023/01/28 11:43:17;;;;;;;33.92;16.65;;;;;;;5.55;59.49;100014.16;5268405;27;20082;-93
2023/01/28 11:45:48;;;;;;;33.30;16.02;;;;;;;5.65;59.49;100012.34;5268195;27;20091;-93
2023/01/28 11:48:32;;;;;;;29.30;14.60;;;;;;;5.70;59.50;100014.03;5265832;27;20153;-93
2023/01/28 11:51:28;;;;;;;37.30;16.12;;;;;;;5.64;59.49;100016.66;5282144;27;20061;-92
2023/01/28 11:54:01;;;;;;;32.55;14.85;;;;;;;5.71;59.50;100009.72;5265505;27;20118;-93
2023/01/28 11:56:45;;;;;;;35.28;14.63;;;;;;;5.76;59.50;100013.13;5264514;27;20128;-92
2023/01/28 11:59:21;;;;;;;36.72;16.30;;;;;;;5.66;59.49;100009.75;5299451;27;20065;-92